sensor_id;sensor_type;location;lat;lon;timestamp;pressure;altitude;pressure_sealevel;temperature;humidity
18918;BME280;9591;52.742;13.650;2023-06-10T00:00:10;101103.50;;;17.48;100.00
18918;BME280;9591;52.742;13.650;2023-06-10T00:03:00;101133.53;;;17.71;100.00
18918;BME280;9591;52.742;13.650;2023-06-10T00:05:47;101128.63;;;17.46;100.00
18918;BME280;9591;52.742;13.650;2023-06-10T00:08:34;101139.91;;;17.35;100.00
18918;BME280;9591;52.742;13.650;2023-06-10T00:11:22;101133.13;;;17.29;100.00
18918;BME280;9591;52.742;13.650;2023-06-10T00:14:10;101138.97;;;17.36;100.00
18918;BME280;9591;52.742;13.650;2023-06-10T00:16:57;101134.41;;;17.38;100.00
18918;BME280;9591;52.742;13.650;2023-06-10T00:19:44;101134.69;;;17.49;100.00
18918;BME280;9591;52.742;13.650;2023-06-10T00:22:32;101122.41;;;17.45;100.00
18918;BME280;9591;52.742;13.650;2023-06-10T00:25:19;101126.91;;;17.45;100.00
18918;BME280;9591;52.742;13.650;2023-06-10T00:28:06;101129.41;;;17.32;100.00
18918;BME280;9591;52.742;13.650;2023-06-10T00:30:54;101130.78;;;17.39;100.00
18918;BME280;9591;52.742;13.650;2023-06-10T00:33:41;101136.06;;;17.41;100.00
18918;BME280;9591;52.742;13.650;2023-06-10T00:36:28;101105.44;;;17.13;100.00
18918;BME280;9591;52.742;13.650;2023-06-10T00:39:15;101130.47;;;17.12;100.00
18918;BME280;9591;52.742;13.650;2023-06-10T00:42:02;101120.94;;;17.24;100.00
18918;BME280;9591;52.742;13.650;2023-06-10T00:44:54;101124.94;;;17.32;100.00
18918;BME280;9591;52.742;13.650;2023-06-10T00:47:43;101118.56;;;17.18;100.00
18918;BME280;9591;52.742;13.650;2023-06-10T00:50:30;101123.75;;;17.21;100.00
18918;BME280;9591;52.742;13.650;2023-06-10T00:53:17;101130.47;;;17.12;100.00
18918;BME280;9591;52.742;13.650;2023-06-10T00:56:04;101125.53;;;17.04;100.00
18918;BME280;9591;52.742;13.650;2023-06-10T00:58:51;101127.94;;;17.26;100.00
18918;BME280;9591;52.742;13.650;2023-06-10T01:01:38;101135.25;;;17.23;100.00
18918;BME280;9591;52.742;13.650;2023-06-10T01:04:26;101131.09;;;17.17;100.00
18918;BME280;9591;52.742;13.650;2023-06-10T01:07:22;101134.13;;;16.94;100.00
18918;BME280;9591;52.742;13.650;2023-06-10T01:10:16;101136.09;;;16.90;100.00
18918;BME280;9591;52.742;13.650;2023-06-10T01:13:03;101086.81;;;16.60;100.00
18918;BME280;9591;52.742;13.650;2023-06-10T01:15:54;101131.75;;;16.88;100.00
18918;BME280;9591;52.742;13.650;2023-06-10T01:18:40;101138.34;;;16.98;100.00
18918;BME280;9591;52.742;13.650;2023-06-10T01:21:29;101131.91;;;16.67;100.00
18918;BME280;9591;52.742;13.650;2023-06-10T01:24:19;101147.22;;;16.64;100.00
18918;BME280;9591;52.742;13.650;2023-06-10T01:27:12;101146.59;;;16.59;100.00
18918;BME280;9591;52.742;13.650;2023-06-10T01:30:06;101146.44;;;16.45;100.00
18918;BME280;9591;52.742;13.650;2023-06-10T01:32:59;101149.56;;;16.53;100.00
18918;BME280;9591;52.742;13.650;2023-06-10T01:35:48;101141.09;;;16.45;100.00
18918;BME280;9591;52.742;13.650;2023-06-10T01:38:40;101146.53;;;16.43;100.00
18918;BME280;9591;52.742;13.650;2023-06-10T01:41:29;101154.13;;;16.51;100.00
18918;BME280;9591;52.742;13.650;2023-06-10T01:44:17;101146.53;;;16.43;100.00
18918;BME280;9591;52.742;13.650;2023-06-10T01:47:05;101147.84;;;16.34;100.00
18918;BME280;9591;52.742;13.650;2023-06-10T01:49:51;101142.34;;;16.37;100.00
18918;BME280;9591;52.742;13.650;2023-06-10T01:52:38;101147.06;;;16.32;100.00
18918;BME280;9591;52.742;13.650;2023-06-10T01:55:26;101142.78;;;16.28;100.00
18918;BME280;9591;52.742;13.650;2023-06-10T01:58:13;101145.00;;;16.37;100.00
18918;BME280;9591;52.742;13.650;2023-06-10T02:00:59;101148.63;;;16.36;100.00
18918;BME280;9591;52.742;13.650;2023-06-10T02:03:46;101155.81;;;16.17;100.00
18918;BME280;9591;52.742;13.650;2023-06-10T02:06:33;101154.81;;;16.20;100.00
18918;BME280;9591;52.742;13.650;2023-06-10T02:09:21;101150.88;;;16.27;100.00
18918;BME280;9591;52.742;13.650;2023-06-10T02:12:10;101153.78;;;16.22;100.00
18918;BME280;9591;52.742;13.650;2023-06-10T02:14:59;101159.44;;;16.16;100.00
18918;BME280;9591;52.742;13.650;2023-06-10T02:17:46;101158.50;;;16.17;100.00
18918;BME280;9591;52.742;13.650;2023-06-10T02:20:34;101160.53;;;16.12;100.00
18918;BME280;9591;52.742;13.650;2023-06-10T02:23:21;101155.47;;;16.06;100.00
18918;BME280;9591;52.742;13.650;2023-06-10T02:26:08;101165.63;;;16.17;100.00
18918;BME280;9591;52.742;13.650;2023-06-10T02:28:56;101162.97;;;15.98;100.00
18918;BME280;9591;52.742;13.650;2023-06-10T02:31:43;101167.09;;;16.05;100.00
18918;BME280;9591;52.742;13.650;2023-06-10T02:34:29;101166.22;;;16.04;100.00
18918;BME280;9591;52.742;13.650;2023-06-10T02:37:17;101153.81;;;15.85;100.00
18918;BME280;9591;52.742;13.650;2023-06-10T02:40:06;101169.13;;;15.81;100.00
18918;BME280;9591;52.742;13.650;2023-06-10T02:42:54;101171.16;;;15.95;100.00
18918;BME280;9591;52.742;13.650;2023-06-10T02:45:42;101166.09;;;15.89;100.00
18918;BME280;9591;52.742;13.650;2023-06-10T02:48:29;101166.81;;;15.92;100.00
18918;BME280;9591;52.742;13.650;2023-06-10T02:51:16;101158.38;;;15.83;100.00
18918;BME280;9591;52.742;13.650;2023-06-10T02:54:06;101169.25;;;15.97;100.00
18918;BME280;9591;52.742;13.650;2023-06-10T02:56:53;101168.75;;;15.70;100.00
18918;BME280;9591;52.742;13.650;2023-06-10T02:59:44;101162.19;;;15.77;100.00
18918;BME280;9591;52.742;13.650;2023-06-10T03:02:33;101166.00;;;15.90;100.00
18918;BME280;9591;52.742;13.650;2023-06-10T03:05:24;101169.34;;;15.77;100.00
18918;BME280;9591;52.742;13.650;2023-06-10T03:08:13;101167.59;;;15.76;100.00
18918;BME280;9591;52.742;13.650;2023-06-10T03:11:01;101171.28;;;15.92;100.00
18918;BME280;9591;52.742;13.650;2023-06-10T03:13:49;101164.66;;;15.82;100.00
18918;BME280;9591;52.742;13.650;2023-06-10T03:16:36;101173.81;;;15.76;100.00
18918;BME280;9591;52.742;13.650;2023-06-10T03:19:28;101168.41;;;15.96;100.00
18918;BME280;9591;52.742;13.650;2023-06-10T03:22:16;101177.84;;;15.85;100.00
18918;BME280;9591;52.742;13.650;2023-06-10T03:25:10;101171.22;;;15.93;100.00
18918;BME280;9591;52.742;13.650;2023-06-10T03:28:03;101167.47;;;15.97;100.00
18918;BME280;9591;52.742;13.650;2023-06-10T03:30:51;101176.41;;;15.96;100.00
18918;BME280;9591;52.742;13.650;2023-06-10T03:33:40;101171.28;;;15.92;100.00
18918;BME280;9591;52.742;13.650;2023-06-10T03:36:28;101174.53;;;15.98;100.00
18918;BME280;9591;52.742;13.650;2023-06-10T03:39:16;101169.19;;;15.98;100.00
18918;BME280;9591;52.742;13.650;2023-06-10T03:42:03;101165.63;;;16.17;100.00
18918;BME280;9591;52.742;13.650;2023-06-10T03:44:51;101171.31;;;16.28;100.00
18918;BME280;9591;52.742;13.650;2023-06-10T03:47:39;101171.19;;;16.31;100.00
18918;BME280;9591;52.742;13.650;2023-06-10T03:50:29;101175.28;;;16.38;100.00
18918;BME280;9591;52.742;13.650;2023-06-10T03:53:17;101181.00;;;16.48;100.00
18918;BME280;9591;52.742;13.650;2023-06-10T03:56:05;101183.00;;;16.61;100.00
18918;BME280;9591;52.742;13.650;2023-06-10T03:58:52;101186.25;;;16.68;100.00
18918;BME280;9591;52.742;13.650;2023-06-10T04:01:39;101178.56;;;16.79;100.00
18918;BME280;9591;52.742;13.650;2023-06-10T04:04:27;101182.19;;;16.95;100.00
18918;BME280;9591;52.742;13.650;2023-06-10T04:07:13;101180.69;;;17.07;100.00
18918;BME280;9591;52.742;13.650;2023-06-10T04:10:02;101180.75;;;17.23;100.00
18918;BME280;9591;52.742;13.650;2023-06-10T04:12:49;101187.34;;;17.33;100.00
18918;BME280;9591;52.742;13.650;2023-06-10T04:15:36;101184.06;;;17.28;100.00
18918;BME280;9591;52.742;13.650;2023-06-10T04:18:27;101192.78;;;17.31;100.00
18918;BME280;9591;52.742;13.650;2023-06-10T04:21:17;101191.50;;;17.38;100.00
18918;BME280;9591;52.742;13.650;2023-06-10T04:24:07;101189.44;;;17.44;100.00
18918;BME280;9591;52.742;13.650;2023-06-10T04:26:56;101192.19;;;17.42;100.00
18918;BME280;9591;52.742;13.650;2023-06-10T04:29:43;101192.91;;;17.46;100.00
18918;BME280;9591;52.742;13.650;2023-06-10T04:32:29;101197.06;;;17.51;100.00
18918;BME280;9591;52.742;13.650;2023-06-10T04:35:16;101201.72;;;17.48;100.00
18918;BME280;9591;52.742;13.650;2023-06-10T04:38:04;101195.16;;;17.53;100.00
18918;BME280;9591;52.742;13.650;2023-06-10T04:40:51;101193.59;;;17.66;100.00
18918;BME280;9591;52.742;13.650;2023-06-10T04:43:41;101193.41;;;17.69;100.00
18918;BME280;9591;52.742;13.650;2023-06-10T04:46:29;101192.72;;;17.66;100.00
18918;BME280;9591;52.742;13.650;2023-06-10T04:49:17;101195.06;;;17.72;100.00
18918;BME280;9591;52.742;13.650;2023-06-10T04:52:05;101199.72;;;17.68;100.00
18918;BME280;9591;52.742;13.650;2023-06-10T04:54:57;101199.75;;;17.84;100.00
18918;BME280;9591;52.742;13.650;2023-06-10T04:57:43;101207.56;;;18.05;100.00
18918;BME280;9591;52.742;13.650;2023-06-10T05:00:32;101205.97;;;18.32;100.00
18918;BME280;9591;52.742;13.650;2023-06-10T05:03:18;101207.44;;;18.69;100.00
18918;BME280;9591;52.742;13.650;2023-06-10T05:06:05;101222.78;;;18.97;100.00
18918;BME280;9591;52.742;13.650;2023-06-10T05:08:52;101220.56;;;18.89;100.00
18918;BME280;9591;52.742;13.650;2023-06-10T05:11:39;101224.00;;;18.91;98.98
18918;BME280;9591;52.742;13.650;2023-06-10T05:14:26;101216.69;;;18.79;99.45
18918;BME280;9591;52.742;13.650;2023-06-10T05:17:14;101219.81;;;18.56;99.83
18918;BME280;9591;52.742;13.650;2023-06-10T05:20:01;101221.34;;;18.60;99.16
18918;BME280;9591;52.742;13.650;2023-06-10T05:22:48;101226.03;;;18.56;100.00
18918;BME280;9591;52.742;13.650;2023-06-10T05:25:35;101232.03;;;18.61;100.00
18918;BME280;9591;52.742;13.650;2023-06-10T05:28:21;101224.84;;;18.62;100.00
18918;BME280;9591;52.742;13.650;2023-06-10T05:31:08;101225.00;;;18.75;99.14
18918;BME280;9591;52.742;13.650;2023-06-10T05:33:57;101224.13;;;18.74;100.00
18918;BME280;9591;52.742;13.650;2023-06-10T05:36:44;101224.72;;;19.09;98.53
18918;BME280;9591;52.742;13.650;2023-06-10T05:39:31;101227.94;;;19.30;95.50
18918;BME280;9591;52.742;13.650;2023-06-10T05:42:18;101233.09;;;19.33;93.73
18918;BME280;9591;52.742;13.650;2023-06-10T05:45:06;101236.13;;;19.13;95.81
18918;BME280;9591;52.742;13.650;2023-06-10T05:47:53;101233.66;;;19.24;95.94
18918;BME280;9591;52.742;13.650;2023-06-10T05:50:42;101235.88;;;19.31;95.95
18918;BME280;9591;52.742;13.650;2023-06-10T05:53:34;101237.31;;;19.67;95.51
18918;BME280;9591;52.742;13.650;2023-06-10T05:56:20;101233.56;;;19.84;92.50
18918;BME280;9591;52.742;13.650;2023-06-10T05:59:07;101240.28;;;19.77;89.44
18918;BME280;9591;52.742;13.650;2023-06-10T06:01:54;101233.81;;;20.08;89.92
18918;BME280;9591;52.742;13.650;2023-06-10T06:04:41;101233.06;;;20.06;89.77
18918;BME280;9591;52.742;13.650;2023-06-10T06:07:31;101237.81;;;19.74;89.47
18918;BME280;9591;52.742;13.650;2023-06-10T06:10:29;101242.22;;;19.75;89.80
18918;BME280;9591;52.742;13.650;2023-06-10T06:13:16;101240.09;;;19.66;90.81
18918;BME280;9591;52.742;13.650;2023-06-10T06:16:03;101239.13;;;19.67;90.25
18918;BME280;9591;52.742;13.650;2023-06-10T06:18:50;101242.09;;;19.62;90.73
18918;BME280;9591;52.742;13.650;2023-06-10T06:21:37;101244.13;;;19.58;91.05
18918;BME280;9591;52.742;13.650;2023-06-10T06:24:25;101256.97;;;19.53;91.30
18918;BME280;9591;52.742;13.650;2023-06-10T06:27:12;101253.63;;;19.64;90.71
18918;BME280;9591;52.742;13.650;2023-06-10T06:29:59;101250.09;;;19.78;90.53
18918;BME280;9591;52.742;13.650;2023-06-10T06:32:46;101258.44;;;19.73;91.13
18918;BME280;9591;52.742;13.650;2023-06-10T06:35:33;101257.00;;;19.68;91.81
18918;BME280;9591;52.742;13.650;2023-06-10T06:38:20;101250.38;;;19.73;89.99
18918;BME280;9591;52.742;13.650;2023-06-10T06:41:08;101258.91;;;19.66;91.31
18918;BME280;9591;52.742;13.650;2023-06-10T06:43:55;101263.81;;;19.73;90.00
18918;BME280;9591;52.742;13.650;2023-06-10T06:46:43;101260.84;;;19.78;89.45
18918;BME280;9591;52.742;13.650;2023-06-10T06:49:29;101262.84;;;19.74;90.78
18918;BME280;9591;52.742;13.650;2023-06-10T06:52:16;101269.28;;;19.86;89.00
18918;BME280;9591;52.742;13.650;2023-06-10T06:55:04;101279.84;;;19.89;88.40
18918;BME280;9591;52.742;13.650;2023-06-10T06:57:52;101276.56;;;19.84;89.40
18918;BME280;9591;52.742;13.650;2023-06-10T07:00:39;101277.50;;;20.11;88.76
18918;BME280;9591;52.742;13.650;2023-06-10T07:03:26;101279.44;;;20.09;89.19
18918;BME280;9591;52.742;13.650;2023-06-10T07:06:13;101278.84;;;20.18;89.71
18918;BME280;9591;52.742;13.650;2023-06-10T07:09:00;101288.44;;;20.08;89.29
18918;BME280;9591;52.742;13.650;2023-06-10T07:11:46;101284.31;;;20.17;89.51
18918;BME280;9591;52.742;13.650;2023-06-10T07:14:34;101290.97;;;20.40;90.94
18918;BME280;9591;52.742;13.650;2023-06-10T07:17:21;101291.28;;;20.62;90.74
18918;BME280;9591;52.742;13.650;2023-06-10T07:20:09;101290.50;;;20.74;88.32
18918;BME280;9591;52.742;13.650;2023-06-10T07:22:55;101294.72;;;20.78;86.69
18918;BME280;9591;52.742;13.650;2023-06-10T07:25:42;101289.66;;;20.86;86.04
18918;BME280;9591;52.742;13.650;2023-06-10T07:28:29;101293.31;;;20.85;87.52
18918;BME280;9591;52.742;13.650;2023-06-10T07:31:19;101305.16;;;20.83;86.64
18918;BME280;9591;52.742;13.650;2023-06-10T07:34:06;101301.84;;;20.92;86.16
18918;BME280;9591;52.742;13.650;2023-06-10T07:36:53;101303.28;;;20.71;86.35
18918;BME280;9591;52.742;13.650;2023-06-10T07:39:40;101311.94;;;20.76;86.14
18918;BME280;9591;52.742;13.650;2023-06-10T07:42:27;101310.50;;;20.70;86.21
18918;BME280;9591;52.742;13.650;2023-06-10T07:45:14;101313.75;;;20.75;88.29
18918;BME280;9591;52.742;13.650;2023-06-10T07:48:03;101310.97;;;20.89;87.72
18918;BME280;9591;52.742;13.650;2023-06-10T07:50:50;101316.28;;;20.91;88.96
18918;BME280;9591;52.742;13.650;2023-06-10T07:53:36;101315.97;;;20.95;85.27
18918;BME280;9591;52.742;13.650;2023-06-10T07:56:23;101315.59;;;20.87;87.25
18918;BME280;9591;52.742;13.650;2023-06-10T07:59:13;101320.88;;;20.76;87.33
18918;BME280;9591;52.742;13.650;2023-06-10T08:02:00;101316.53;;;20.74;85.71
18918;BME280;9591;52.742;13.650;2023-06-10T08:04:48;101320.59;;;20.67;88.42
18918;BME280;9591;52.742;13.650;2023-06-10T08:07:34;101320.00;;;20.76;87.75
18918;BME280;9591;52.742;13.650;2023-06-10T08:10:21;101313.56;;;20.91;86.69
18918;BME280;9591;52.742;13.650;2023-06-10T08:13:08;101318.31;;;20.87;86.95
18918;BME280;9591;52.742;13.650;2023-06-10T08:15:55;101324.72;;;20.72;87.25
18918;BME280;9591;52.742;13.650;2023-06-10T08:18:42;101321.06;;;20.73;88.44
18918;BME280;9591;52.742;13.650;2023-06-10T08:21:30;101311.19;;;20.59;87.88
18918;BME280;9591;52.742;13.650;2023-06-10T08:24:17;101319.38;;;20.58;89.92
18918;BME280;9591;52.742;13.650;2023-06-10T08:27:05;101321.75;;;20.63;90.01
18918;BME280;9591;52.742;13.650;2023-06-10T08:29:52;101333.47;;;20.76;89.74
18918;BME280;9591;52.742;13.650;2023-06-10T08:32:39;101327.13;;;20.77;89.05
18918;BME280;9591;52.742;13.650;2023-06-10T08:35:26;101331.19;;;20.82;91.07
18918;BME280;9591;52.742;13.650;2023-06-10T08:38:14;101334.44;;;20.75;94.20
18918;BME280;9591;52.742;13.650;2023-06-10T08:41:05;101329.59;;;20.80;97.83
18918;BME280;9591;52.742;13.650;2023-06-10T08:43:59;101319.13;;;20.75;95.81
18918;BME280;9591;52.742;13.650;2023-06-10T08:46:49;101324.41;;;20.77;97.20
18918;BME280;9591;52.742;13.650;2023-06-10T08:49:38;101338.56;;;20.93;94.70
18918;BME280;9591;52.742;13.650;2023-06-10T08:52:29;101303.38;;;20.69;97.04
18918;BME280;9591;52.742;13.650;2023-06-10T08:55:19;101330.13;;;20.85;97.54
18918;BME280;9591;52.742;13.650;2023-06-10T08:58:14;101325.31;;;20.90;99.29
18918;BME280;9591;52.742;13.650;2023-06-10T09:01:01;101334.75;;;20.83;100.00
18918;BME280;9591;52.742;13.650;2023-06-10T09:03:48;101322.16;;;20.83;100.00
18918;BME280;9591;52.742;13.650;2023-06-10T09:06:36;101327.22;;;20.75;100.00
18918;BME280;9591;52.742;13.650;2023-06-10T09:09:25;101326.38;;;20.60;100.00
18918;BME280;9591;52.742;13.650;2023-06-10T09:12:16;101323.38;;;20.65;100.00
18918;BME280;9591;52.742;13.650;2023-06-10T09:15:02;101320.38;;;20.97;100.00
18918;BME280;9591;52.742;13.650;2023-06-10T09:17:50;101319.72;;;20.93;100.00
18918;BME280;9591;52.742;13.650;2023-06-10T09:20:38;101312.25;;;20.84;100.00
18918;BME280;9591;52.742;13.650;2023-06-10T09:23:25;101317.97;;;20.79;100.00
18918;BME280;9591;52.742;13.650;2023-06-10T09:26:13;101316.56;;;20.86;100.00
18918;BME280;9591;52.742;13.650;2023-06-10T09:29:05;101312.22;;;20.71;100.00
18918;BME280;9591;52.742;13.650;2023-06-10T09:31:52;101332.53;;;20.89;100.00
18918;BME280;9591;52.742;13.650;2023-06-10T09:34:39;101342.88;;;20.95;100.00
18918;BME280;9591;52.742;13.650;2023-06-10T09:37:26;101341.38;;;20.91;100.00
18918;BME280;9591;52.742;13.650;2023-06-10T09:40:13;101336.06;;;20.77;100.00
18918;BME280;9591;52.742;13.650;2023-06-10T09:43:00;101333.59;;;20.60;100.00
18918;BME280;9591;52.742;13.650;2023-06-10T09:45:49;101319.94;;;20.35;100.00
18918;BME280;9591;52.742;13.650;2023-06-10T09:48:41;101338.78;;;20.35;100.00
18918;BME280;9591;52.742;13.650;2023-06-10T09:51:29;101347.13;;;20.30;100.00
18918;BME280;9591;52.742;13.650;2023-06-10T09:54:15;101350.09;;;20.11;100.00
18918;BME280;9591;52.742;13.650;2023-06-10T09:57:07;101358.66;;;19.89;100.00
18918;BME280;9591;52.742;13.650;2023-06-10T09:59:55;101355.19;;;19.73;100.00
18918;BME280;9591;52.742;13.650;2023-06-10T10:02:48;101356.41;;;19.68;100.00
18918;BME280;9591;52.742;13.650;2023-06-10T10:05:34;101363.56;;;19.53;100.00
18918;BME280;9591;52.742;13.650;2023-06-10T10:08:22;101363.69;;;19.66;100.00
18918;BME280;9591;52.742;13.650;2023-06-10T10:11:09;101358.34;;;19.80;100.00
18918;BME280;9591;52.742;13.650;2023-06-10T10:13:56;101356.84;;;19.90;100.00
18918;BME280;9591;52.742;13.650;2023-06-10T10:16:44;101364.50;;;19.96;100.00
18918;BME280;9591;52.742;13.650;2023-06-10T10:19:37;101357.97;;;20.00;100.00
18918;BME280;9591;52.742;13.650;2023-06-10T10:22:34;101348.94;;;20.15;100.00
18918;BME280;9591;52.742;13.650;2023-06-10T10:25:25;101352.97;;;20.08;100.00
18918;BME280;9591;52.742;13.650;2023-06-10T10:28:15;101348.75;;;20.33;100.00
18918;BME280;9591;52.742;13.650;2023-06-10T10:31:08;101346.25;;;20.29;100.00
18918;BME280;9591;52.742;13.650;2023-06-10T10:33:58;101339.00;;;20.46;100.00
18918;BME280;9591;52.742;13.650;2023-06-10T10:36:48;101353.09;;;20.64;100.00
18918;BME280;9591;52.742;13.650;2023-06-10T10:39:36;101343.69;;;20.83;100.00
18918;BME280;9591;52.742;13.650;2023-06-10T10:42:23;101345.41;;;20.84;100.00
18918;BME280;9591;52.742;13.650;2023-06-10T10:45:11;101338.63;;;21.06;100.00
18918;BME280;9591;52.742;13.650;2023-06-10T10:48:04;101338.78;;;21.17;100.00
18918;BME280;9591;52.742;13.650;2023-06-10T10:50:56;101341.53;;;21.30;100.00
18918;BME280;9591;52.742;13.650;2023-06-10T10:54:11;101339.53;;;21.46;100.00
18918;BME280;9591;52.742;13.650;2023-06-10T10:57:14;101317.44;;;21.41;100.00
18918;BME280;9591;52.742;13.650;2023-06-10T11:00:02;101336.22;;;21.68;100.00
18918;BME280;9591;52.742;13.650;2023-06-10T11:02:50;101333.94;;;21.74;100.00
18918;BME280;9591;52.742;13.650;2023-06-10T11:05:43;101335.47;;;21.91;100.00
18918;BME280;9591;52.742;13.650;2023-06-10T11:08:47;101338.84;;;22.07;100.00
18918;BME280;9591;52.742;13.650;2023-06-10T11:11:49;101339.94;;;22.17;100.00
18918;BME280;9591;52.742;13.650;2023-06-10T11:14:36;101338.75;;;22.58;100.00
18918;BME280;9591;52.742;13.650;2023-06-10T11:17:24;101329.97;;;22.67;100.00
18918;BME280;9591;52.742;13.650;2023-06-10T11:20:11;101327.28;;;23.04;100.00
18918;BME280;9591;52.742;13.650;2023-06-10T11:23:01;101319.34;;;23.48;100.00
18918;BME280;9591;52.742;13.650;2023-06-10T11:25:49;101318.50;;;23.94;100.00
18918;BME280;9591;52.742;13.650;2023-06-10T11:28:36;101315.31;;;24.23;100.00
18918;BME280;9591;52.742;13.650;2023-06-10T11:31:25;101308.06;;;24.34;100.00
18918;BME280;9591;52.742;13.650;2023-06-10T11:34:13;101311.88;;;24.43;100.00
18918;BME280;9591;52.742;13.650;2023-06-10T11:37:00;101305.44;;;24.66;100.00
18918;BME280;9591;52.742;13.650;2023-06-10T11:39:47;101301.81;;;24.88;98.12
18918;BME280;9591;52.742;13.650;2023-06-10T11:42:38;101307.75;;;25.14;100.00
18918;BME280;9591;52.742;13.650;2023-06-10T11:45:25;101301.19;;;25.28;98.35
18918;BME280;9591;52.742;13.650;2023-06-10T11:48:12;101299.47;;;25.47;97.32
18918;BME280;9591;52.742;13.650;2023-06-10T11:50:59;101300.59;;;25.45;97.52
18918;BME280;9591;52.742;13.650;2023-06-10T11:53:46;101297.22;;;25.53;89.35
18918;BME280;9591;52.742;13.650;2023-06-10T11:56:34;101296.13;;;25.76;98.43
18918;BME280;9591;52.742;13.650;2023-06-10T11:59:27;101284.13;;;25.99;86.70
18918;BME280;9591;52.742;13.650;2023-06-10T12:02:15;101282.56;;;26.37;82.13
18918;BME280;9591;52.742;13.650;2023-06-10T12:05:10;101278.06;;;26.66;84.25
18918;BME280;9591;52.742;13.650;2023-06-10T12:08:10;101273.38;;;26.78;73.88
18918;BME280;9591;52.742;13.650;2023-06-10T12:10:58;101285.00;;;27.09;70.57
18918;BME280;9591;52.742;13.650;2023-06-10T12:13:46;101276.53;;;27.31;68.19
18918;BME280;9591;52.742;13.650;2023-06-10T12:16:36;101279.25;;;27.41;74.42
18918;BME280;9591;52.742;13.650;2023-06-10T12:19:22;101279.66;;;27.56;73.61
18918;BME280;9591;52.742;13.650;2023-06-10T12:22:09;101277.94;;;27.55;72.35
18918;BME280;9591;52.742;13.650;2023-06-10T12:25:00;101271.16;;;27.78;72.24
18918;BME280;9591;52.742;13.650;2023-06-10T12:27:50;101276.13;;;27.92;64.94
18918;BME280;9591;52.742;13.650;2023-06-10T12:30:38;101263.28;;;28.22;63.14
18918;BME280;9591;52.742;13.650;2023-06-10T12:33:26;101261.47;;;28.40;59.78
18918;BME280;9591;52.742;13.650;2023-06-10T12:36:16;101263.44;;;28.65;61.74
18918;BME280;9591;52.742;13.650;2023-06-10T12:39:03;101253.34;;;28.58;61.37
18918;BME280;9591;52.742;13.650;2023-06-10T12:41:51;101257.13;;;28.65;58.02
18918;BME280;9591;52.742;13.650;2023-06-10T12:44:39;101247.78;;;28.67;58.13
18918;BME280;9591;52.742;13.650;2023-06-10T12:47:31;101257.19;;;28.83;57.49
18918;BME280;9591;52.742;13.650;2023-06-10T12:50:21;101247.63;;;28.96;66.56
18918;BME280;9591;52.742;13.650;2023-06-10T12:53:09;101251.81;;;29.09;57.58
18918;BME280;9591;52.742;13.650;2023-06-10T12:55:57;101248.69;;;29.03;54.41
18918;BME280;9591;52.742;13.650;2023-06-10T12:58:44;101238.03;;;29.10;53.47
18918;BME280;9591;52.742;13.650;2023-06-10T13:01:32;101236.78;;;29.22;58.20
18918;BME280;9591;52.742;13.650;2023-06-10T13:04:20;101245.78;;;29.41;51.75
18918;BME280;9591;52.742;13.650;2023-06-10T13:07:08;101245.94;;;29.65;52.66
18918;BME280;9591;52.742;13.650;2023-06-10T13:09:56;101243.69;;;29.86;47.10
18918;BME280;9591;52.742;13.650;2023-06-10T13:12:42;101244.34;;;29.80;43.25
18918;BME280;9591;52.742;13.650;2023-06-10T13:15:33;101254.97;;;29.40;42.28
18918;BME280;9591;52.742;13.650;2023-06-10T13:18:27;101255.41;;;29.09;41.35
18918;BME280;9591;52.742;13.650;2023-06-10T13:21:14;101251.44;;;28.86;39.02
18918;BME280;9591;52.742;13.650;2023-06-10T13:24:03;101252.91;;;28.98;38.67
18918;BME280;9591;52.742;13.650;2023-06-10T13:26:50;101252.50;;;29.11;39.55
18918;BME280;9591;52.742;13.650;2023-06-10T13:29:36;101255.25;;;28.93;38.24
18918;BME280;9591;52.742;13.650;2023-06-10T13:32:23;101257.72;;;28.86;36.32
18918;BME280;9591;52.742;13.650;2023-06-10T13:35:10;101250.53;;;28.50;36.45
18918;BME280;9591;52.742;13.650;2023-06-10T13:37:57;101239.50;;;28.14;37.80
18918;BME280;9591;52.742;13.650;2023-06-10T13:40:45;101244.47;;;27.91;39.04
18918;BME280;9591;52.742;13.650;2023-06-10T13:43:32;101234.69;;;27.71;40.41
18918;BME280;9591;52.742;13.650;2023-06-10T13:46:19;101227.72;;;27.49;51.98
18918;BME280;9591;52.742;13.650;2023-06-10T13:49:07;101231.31;;;27.21;49.97
18918;BME280;9591;52.742;13.650;2023-06-10T13:51:53;101232.19;;;27.12;48.95
18918;BME280;9591;52.742;13.650;2023-06-10T13:54:40;101225.59;;;26.95;50.97
18918;BME280;9591;52.742;13.650;2023-06-10T13:57:28;101226.91;;;26.81;50.86
18918;BME280;9591;52.742;13.650;2023-06-10T14:00:16;101230.03;;;26.57;59.47
18918;BME280;9591;52.742;13.650;2023-06-10T14:03:03;101223.72;;;26.07;69.63
18918;BME280;9591;52.742;13.650;2023-06-10T14:05:50;101213.22;;;25.83;73.75
18918;BME280;9591;52.742;13.650;2023-06-10T14:08:36;101212.41;;;26.02;70.69
18918;BME280;9591;52.742;13.650;2023-06-10T14:11:24;101217.75;;;25.73;73.03
18918;BME280;9591;52.742;13.650;2023-06-10T14:14:12;101212.50;;;25.81;75.11
18918;BME280;9591;52.742;13.650;2023-06-10T14:16:59;101207.28;;;25.99;60.46
18918;BME280;9591;52.742;13.650;2023-06-10T14:19:46;101208.31;;;26.17;66.85
18918;BME280;9591;52.742;13.650;2023-06-10T14:22:33;101208.19;;;26.28;69.27
18918;BME280;9591;52.742;13.650;2023-06-10T14:25:20;101214.59;;;26.18;62.16
18918;BME280;9591;52.742;13.650;2023-06-10T14:28:07;101200.44;;;26.14;66.51
18918;BME280;9591;52.742;13.650;2023-06-10T14:30:55;101195.00;;;26.04;68.16
18918;BME280;9591;52.742;13.650;2023-06-10T14:33:43;101200.41;;;25.64;73.18